Time,TemperatureF,DewpointF,PressureIn,WindDirection,WindDirectionDegrees,WindSpeedMPH,WindSpeedGustMPH,Humidity,HourlyPrecipIn,Conditions,Clouds,dailyrainin,SoftwareType,DateUTC
2013-07-02 00:06:00,62.8,57.2,30.09,NE,45,0.0,-999.0,82,-99.99,,,0.00,Acu-Link.com,2013-07-02 05:06:00,
2013-07-02 00:23:00,62.2,57.6,30.09,NNW,337,0.0,-999.0,85,-99.99,,,0.00,Acu-Link.com,2013-07-02 05:23:00,
2013-07-02 00:39:00,61.7,57.1,30.09,North,0,0.0,-999.0,85,-99.99,,,0.00,Acu-Link.com,2013-07-02 05:39:00,
2013-07-02 01:28:00,61.2,57.0,30.11,North,0,0.0,-999.0,86,-99.99,,,0.00,Acu-Link.com,2013-07-02 06:28:00,
2013-07-02 01:44:00,59.7,57.1,30.10,ENE,67,0.0,-999.0,91,-99.99,,,0.00,Acu-Link.com,2013-07-02 06:44:00,
2013-07-02 02:15:00,59.7,57.1,30.10,North,0,0.0,-999.0,91,-99.99,,,0.00,Acu-Link.com,2013-07-02 07:15:00,
2013-07-02 05:12:00,57.0,56.4,30.11,ENE,67,0.0,-999.0,98,-99.99,,,0.00,Acu-Link.com,2013-07-02 10:12:00,
2013-07-02 05:30:00,57.4,56.8,30.10,ENE,67,0.0,-999.0,98,-99.99,,,0.00,Acu-Link.com,2013-07-02 10:30:00,
2013-07-02 05:46:00,57.7,57.1,30.11,ENE,67,0.0,-999.0,98,-99.99,,,0.00,Acu-Link.com,2013-07-02 10:46:00,
2013-07-02 06:01:00,58.1,57.5,30.10,North,0,0.0,-999.0,98,-99.99,,,0.00,Acu-Link.com,2013-07-02 11:01:00,
2013-07-02 06:37:00,58.5,57.9,30.12,NE,45,0.0,-999.0,98,-99.99,,,0.00,Acu-Link.com,2013-07-02 11:37:00,
2013-07-02 06:54:00,58.6,58.0,30.12,North,0,0.0,-999.0,98,-99.99,,,0.00,Acu-Link.com,2013-07-02 11:54:00,
2013-07-02 07:10:00,62.1,61.5,30.13,WNW,292,0.0,-999.0,98,-99.99,,,0.00,Acu-Link.com,2013-07-02 12:10:00,
2013-07-02 07:25:00,64.2,61.5,30.11,SW,225,0.0,-999.0,91,-99.99,,,0.00,Acu-Link.com,2013-07-02 12:25:00,
2013-07-02 07:40:00,67.3,62.6,30.13,West,270,0.0,-999.0,85,-99.99,,,0.00,Acu-Link.com,2013-07-02 12:40:00,
2013-07-02 07:56:00,69.6,62.8,30.13,NE,45,0.0,-999.0,79,-99.99,,,0.00,Acu-Link.com,2013-07-02 12:56:00,
2013-07-02 08:11:00,73.4,62.6,30.12,SE,135,0.0,-999.0,69,-99.99,,,0.00,Acu-Link.com,2013-07-02 13:11:00,
2013-07-02 08:26:00,77.5,64.8,30.12,South,180,0.0,-999.0,65,-99.99,,,0.00,Acu-Link.com,2013-07-02 13:26:00,
2013-07-02 08:41:00,80.8,64.6,30.12,SE,135,0.0,-999.0,58,-99.99,,,0.00,Acu-Link.com,2013-07-02 13:41:00,
2013-07-02 08:56:00,82.2,64.4,30.12,SW,225,2.2,-999.0,55,-99.99,,,0.00,Acu-Link.com,2013-07-02 13:56:00,
2013-07-02 09:12:00,81.1,61.2,30.12,SW,225,2.2,-999.0,51,-99.99,,,0.00,Acu-Link.com,2013-07-02 14:12:00,
2013-07-02 09:27:00,85.8,63.8,30.12,SSE,157,2.2,-999.0,48,-99.99,,,0.00,Acu-Link.com,2013-07-02 14:27:00,
2013-07-02 09:42:00,79.9,61.2,30.12,West,270,2.2,-999.0,53,-99.99,,,0.00,Acu-Link.com,2013-07-02 14:42:00,
2013-07-02 09:57:00,78.3,60.3,30.12,SSE,157,1.7,-999.0,54,-99.99,,,0.00,Acu-Link.com,2013-07-02 14:57:00,
2013-07-02 10:13:00,79.2,60.6,30.11,SW,225,2.7,-999.0,53,-99.99,,,0.00,Acu-Link.com,2013-07-02 15:13:00,
2013-07-02 10:29:00,80.2,60.4,30.11,West,270,1.1,-999.0,51,-99.99,,,0.00,Acu-Link.com,2013-07-02 15:29:00,
2013-07-02 10:44:00,80.6,59.6,30.10,SW,225,3.2,-999.0,49,-99.99,,,0.00,Acu-Link.com,2013-07-02 15:44:00,
2013-07-02 10:59:00,81.1,59.5,30.11,West,270,0.0,-999.0,48,-99.99,,,0.00,Acu-Link.com,2013-07-02 15:59:00,
2013-07-02 11:14:00,81.9,59.1,30.11,SE,135,0.0,-999.0,46,-99.99,,,0.00,Acu-Link.com,2013-07-02 16:14:00,
2013-07-02 11:29:00,82.2,61.7,30.10,WNW,292,1.7,-999.0,50,-99.99,,,0.00,Acu-Link.com,2013-07-02 16:29:00,
2013-07-02 11:45:00,81.5,60.5,30.11,SW,225,3.2,-999.0,49,-99.99,,,0.00,Acu-Link.com,2013-07-02 16:45:00,
2013-07-02 12:00:00,82.8,62.8,30.11,WNW,292,1.1,-999.0,51,-99.99,,,0.00,Acu-Link.com,2013-07-02 17:00:00,
2013-07-02 12:15:00,81.9,59.1,30.10,SE,135,2.2,-999.0,46,-99.99,,,0.00,Acu-Link.com,2013-07-02 17:15:00,
2013-07-02 12:30:00,82.6,61.5,30.10,WNW,292,2.2,-999.0,49,-99.99,,,0.00,Acu-Link.com,2013-07-02 17:30:00,
2013-07-02 12:45:00,84.9,61.8,30.11,NW,315,0.0,-999.0,46,-99.99,,,0.00,Acu-Link.com,2013-07-02 17:45:00,
2013-07-02 13:01:00,82.0,60.3,30.10,NNE,22,0.0,-999.0,48,-99.99,,,0.00,Acu-Link.com,2013-07-02 18:01:00,
2013-07-02 13:16:00,82.4,60.7,30.09,SSW,202,2.7,-999.0,48,-99.99,,,0.00,Acu-Link.com,2013-07-02 18:16:00,
2013-07-02 13:31:00,83.7,60.7,30.08,SSW,202,1.1,-999.0,46,-99.99,,,0.00,Acu-Link.com,2013-07-02 18:31:00,
2013-07-02 13:47:00,84.7,59.7,30.08,SSW,202,1.1,-999.0,43,-99.99,,,0.00,Acu-Link.com,2013-07-02 18:47:00,
2013-07-02 14:02:00,85.1,61.3,30.08,WSW,247,3.2,-999.0,45,-99.99,,,0.00,Acu-Link.com,2013-07-02 19:02:00,
2013-07-02 14:17:00,83.5,59.9,30.09,NE,45,2.2,-999.0,45,-99.99,,,0.00,Acu-Link.com,2013-07-02 19:17:00,
2013-07-02 14:32:00,84.7,62.8,30.07,NNE,22,1.7,-999.0,48,-99.99,,,0.00,Acu-Link.com,2013-07-02 19:32:00,
2013-07-02 14:47:00,86.7,61.5,30.07,SW,225,3.2,-999.0,43,-99.99,,,0.00,Acu-Link.com,2013-07-02 19:47:00,
2013-07-02 15:03:00,86.5,62.0,30.05,South,180,2.2,-999.0,44,-99.99,,,0.00,Acu-Link.com,2013-07-02 20:03:00,
2013-07-02 15:18:00,88.5,61.1,30.05,SSW,202,1.7,-999.0,40,-99.99,,,0.00,Acu-Link.com,2013-07-02 20:18:00,
2013-07-02 15:33:00,83.8,60.2,30.06,ESE,112,2.7,-999.0,45,-99.99,,,0.00,Acu-Link.com,2013-07-02 20:33:00,
2013-07-02 15:49:00,82.8,59.9,30.05,East,90,0.0,-999.0,46,-99.99,,,0.00,Acu-Link.com,2013-07-02 20:49:00,
2013-07-02 16:04:00,82.2,59.9,30.04,ESE,112,0.0,-999.0,47,-99.99,,,0.00,Acu-Link.com,2013-07-02 21:04:00,
2013-07-02 16:19:00,82.0,60.3,30.03,East,90,1.7,-999.0,48,-99.99,,,0.00,Acu-Link.com,2013-07-02 21:19:00,
2013-07-02 16:34:00,83.1,61.3,30.06,ESE,112,0.0,-999.0,48,-99.99,,,0.00,Acu-Link.com,2013-07-02 21:34:00,
2013-07-02 16:50:00,82.0,59.2,30.04,SSE,157,0.0,-999.0,46,-99.99,,,0.00,Acu-Link.com,2013-07-02 21:50:00,
2013-07-02 17:05:00,80.1,58.6,30.04,South,180,0.0,-999.0,48,-99.99,,,0.00,Acu-Link.com,2013-07-02 22:05:00,
2013-07-02 17:20:00,77.9,59.9,30.07,West,270,2.7,-999.0,54,-99.99,,,0.00,Acu-Link.com,2013-07-02 22:20:00,
2013-07-02 17:35:00,75.2,60.8,30.05,West,270,3.2,-999.0,61,-99.99,,,0.00,Acu-Link.com,2013-07-02 22:35:00,
2013-07-02 17:50:00,74.8,62.2,30.05,ENE,67,2.2,-999.0,65,-99.99,,,0.00,Acu-Link.com,2013-07-02 22:50:00,
2013-07-02 18:06:00,73.6,62.4,30.03,South,180,0.0,-999.0,68,-99.99,,,0.00,Acu-Link.com,2013-07-02 23:06:00,
2013-07-02 18:21:00,75.9,63.7,30.05,ESE,112,2.7,-999.0,66,-99.99,,,0.00,Acu-Link.com,2013-07-02 23:21:00,
2013-07-02 18:36:00,74.8,63.1,30.04,NE,45,1.7,-999.0,67,-99.99,,,0.00,Acu-Link.com,2013-07-02 23:36:00,
2013-07-02 18:51:00,77.5,63.9,30.03,SSE,157,0.0,-999.0,63,-99.99,,,0.00,Acu-Link.com,2013-07-02 23:51:00,
2013-07-02 19:07:00,81.7,64.5,30.03,West,270,1.1,-999.0,56,-99.99,,,0.00,Acu-Link.com,2013-07-03 00:07:00,
2013-07-02 19:22:00,82.4,64.1,30.01,NNW,337,0.0,-999.0,54,-99.99,,,0.00,Acu-Link.com,2013-07-03 00:22:00,
2013-07-02 19:37:00,82.4,64.1,30.02,SW,225,2.7,-999.0,54,-99.99,,,0.00,Acu-Link.com,2013-07-03 00:37:00,
2013-07-02 19:52:00,79.9,63.8,30.02,NW,315,1.7,-999.0,58,-99.99,,,0.00,Acu-Link.com,2013-07-03 00:52:00,
2013-07-02 20:07:00,75.9,62.8,30.02,WNW,292,2.7,-999.0,64,-99.99,,,0.00,Acu-Link.com,2013-07-03 01:07:00,
2013-07-02 20:23:00,74.8,62.7,30.02,WSW,247,2.2,-999.0,66,-99.99,,,0.00,Acu-Link.com,2013-07-03 01:23:00,
2013-07-02 20:38:00,73.6,62.8,30.02,SW,225,1.1,-999.0,69,-99.99,,,0.00,Acu-Link.com,2013-07-03 01:38:00,
2013-07-02 20:53:00,72.5,62.5,30.01,ENE,67,0.0,-999.0,71,-99.99,,,0.00,Acu-Link.com,2013-07-03 01:53:00,
2013-07-02 21:08:00,71.2,62.5,30.02,WNW,292,0.0,-999.0,74,-99.99,,,0.00,Acu-Link.com,2013-07-03 02:08:00,
2013-07-02 21:23:00,69.8,61.9,30.03,East,90,0.0,-999.0,76,-99.99,,,0.00,Acu-Link.com,2013-07-03 02:23:00,
2013-07-02 21:54:00,68.2,62.1,30.02,SSW,202,0.0,-999.0,81,-99.99,,,0.00,Acu-Link.com,2013-07-03 02:54:00,
2013-07-02 22:25:00,67.5,61.8,30.03,West,270,0.0,-999.0,82,-99.99,,,0.00,Acu-Link.com,2013-07-03 03:25:00,
2013-07-02 22:40:00,67.1,61.4,30.04,East,90,0.0,-999.0,82,-99.99,,,0.00,Acu-Link.com,2013-07-03 03:40:00,
2013-07-02 22:55:00,66.7,61.0,30.03,NNE,22,0.0,-999.0,82,-99.99,,,0.00,Acu-Link.com,2013-07-03 03:55:00,
2013-07-02 23:10:00,66.9,60.9,30.03,North,0,0.0,-999.0,81,-99.99,,,0.00,Acu-Link.com,2013-07-03 04:10:00,
2013-07-02 23:25:00,66.2,60.5,30.03,East,90,0.0,-999.0,82,-99.99,,,0.00,Acu-Link.com,2013-07-03 04:25:00,
2013-07-02 23:41:00,65.7,60.7,30.03,NW,315,0.0,-999.0,84,-99.99,,,0.00,Acu-Link.com,2013-07-03 04:41:00,
2013-07-02 23:56:00,64.9,60.9,30.03,East,90,0.0,-999.0,87,-99.99,,,0.00,Acu-Link.com,2013-07-03 04:56:00,